Slap Out, Illinois
Current Conditions -  °F | °C
As of 10:55 PM on Friday 28 Nov 2014 (Local Time) from KFOA Reporting Station
Clear Clear  
Wind Chill: 29°   Ceiling: Unl
Heat Index: 36°   Visibility: 10mi
Dew Point: 29°   Wind: 8mph
Humidity: 77%   Direction: 170°S
Pressure: 29.97"   Gusts: NA
Location:  38.6075°N, 88.751°W
Report Text: KFOA 290455Z AUTO 17007KT 10SM CLR 02/M01 A2997 RMK AO2 T00211015
Loading
Personal Weather Stations






























Interactive Weather Map New forecast layout! Learn more

10-Day Weather Forecast

Advertisements
Track Severe Weather on mobile